Laurier, Washington
Current Conditions -  °F | °C
As of 7:53 AM on Wednesday 28 Jan 2015 (Local Time) from KOMK Reporting Station
Overcast Overcast  
Wind Chill: 29°   Ceiling: 500
Heat Index: 34°   Visibility: 9mi
Dew Point: 32°   Wind: 6mph
Humidity: 92%   Direction: 290°WNW
Pressure: 30.38"   Gusts: NA
Location:  49°N, 118.23°W
Report Text: KOMK 281553Z AUTO 29005KT 9SM OVC005 01/00 A3038 RMK AO2 SLP300 T00110000
Loading
Personal Weather Stations






























Interactive Weather Map New forecast layout! Learn more

10-Day Weather Forecast

Advertisements
Track Severe Weather on mobile